Terminal Aerodrome Forecast
Issued by NWS

Home | Current Version | Previous Version | Text Only | Print | Product List | Glossary On
Versions: 1 2 3 4 5 6 7 8 9 10 11 12 13 14 15 16
000
FTAK31 PAJN 261100
TAFAGY
TAF
PAGY 261130Z 2612/2712 00000KT P6SM -RA FEW004 SCT015 OVC035
      TEMPO 2612/2615 2SM RA BR SCT004 OVC015
     FM261500 21008KT 5SM -RA BR FEW008 BKN020 OVC050
     FM261800 21008KT P6SM -RA SCT025 OVC050
     FM270800 18003KT 4SM -RA BR BKN020 OVC040
      AMD LTD TO CLD VIS AND WIND=

USA.gov is the U.S. government's official web portal to all federal, state and local government web resources and services.